createdAt,value
2022-10-14T00:00:05.375Z,14.00
2022-10-14T00:02:33.069Z,14.00
2022-10-14T00:05:02.158Z,14.00
2022-10-14T00:07:29.879Z,14.00
2022-10-14T00:09:57.632Z,14.00
2022-10-14T00:12:25.459Z,14.00
2022-10-14T00:14:53.257Z,14.00
2022-10-14T00:17:23.961Z,14.00
2022-10-14T00:19:51.750Z,14.00
2022-10-14T00:22:20.880Z,14.00
2022-10-14T00:24:48.619Z,14.00
2022-10-14T00:27:16.361Z,14.00
2022-10-14T00:29:44.118Z,14.00
2022-10-14T00:32:12.156Z,14.00
2022-10-14T00:34:39.904Z,14.00
2022-10-14T00:37:07.610Z,14.00
2022-10-14T00:39:36.927Z,14.00
2022-10-14T00:42:05.822Z,14.00
2022-10-14T00:44:52.949Z,14.00
2022-10-14T00:47:20.895Z,14.00
2022-10-14T00:49:48.874Z,14.10
2022-10-14T00:52:18.666Z,14.00
2022-10-14T00:54:51.001Z,14.00
2022-10-14T00:57:19.931Z,14.00
2022-10-14T00:59:47.959Z,14.10
2022-10-14T01:02:18.658Z,14.10
2022-10-14T01:04:47.024Z,14.10
2022-10-14T01:07:20.947Z,14.10
2022-10-14T01:09:54.667Z,14.10
2022-10-14T01:12:29.442Z,14.10
2022-10-14T01:15:04.740Z,14.10
2022-10-14T01:17:37.515Z,14.10
2022-10-14T01:20:10.701Z,14.00
2022-10-14T01:22:40.283Z,14.10
2022-10-14T01:25:15.213Z,14.10
2022-10-14T01:27:57.787Z,14.00
2022-10-14T01:30:30.628Z,14.00
2022-10-14T01:33:04.326Z,14.00
2022-10-14T01:35:38.479Z,14.00
2022-10-14T01:38:09.571Z,14.00
2022-10-14T01:40:40.387Z,14.00
2022-10-14T01:43:08.789Z,14.00
2022-10-14T01:45:38.608Z,14.00
2022-10-14T01:48:07.179Z,14.00
2022-10-14T01:50:36.331Z,14.00
2022-10-14T01:53:05.637Z,14.00
2022-10-14T01:55:35.917Z,14.00
2022-10-14T01:58:04.947Z,14.00
2022-10-14T02:00:32.654Z,14.00
2022-10-14T02:03:01.776Z,14.00
2022-10-14T02:05:32.886Z,14.00
2022-10-14T02:08:03.901Z,14.00
2022-10-14T02:10:42.691Z,14.00
2022-10-14T02:13:17.765Z,14.00
2022-10-14T02:15:50.690Z,14.00
2022-10-14T02:18:24.499Z,14.00
2022-10-14T02:20:56.071Z,14.00
2022-10-14T02:23:25.124Z,14.00
2022-10-14T02:25:54.168Z,14.00
2022-10-14T02:28:23.622Z,14.00
2022-10-14T02:30:54.625Z,14.00
2022-10-14T02:33:25.774Z,14.00
2022-10-14T02:35:54.231Z,14.00
2022-10-14T02:38:22.071Z,14.00
2022-10-14T02:40:50.993Z,14.00
2022-10-14T02:43:20.336Z,14.00
2022-10-14T02:45:48.143Z,14.00
2022-10-14T02:48:15.876Z,14.00
2022-10-14T02:50:44.967Z,13.90
2022-10-14T02:53:15.173Z,13.90
2022-10-14T02:55:42.895Z,13.90
2022-10-14T02:58:10.741Z,13.90
2022-10-14T03:00:38.463Z,13.90
2022-10-14T03:03:06.159Z,13.90
2022-10-14T03:05:34.041Z,13.90
2022-10-14T03:08:03.120Z,13.90
2022-10-14T03:10:30.870Z,13.80
2022-10-14T03:12:58.576Z,13.80
2022-10-14T03:15:26.356Z,13.80
2022-10-14T03:17:54.165Z,13.80
2022-10-14T03:20:23.194Z,13.90
2022-10-14T03:22:50.942Z,13.90
2022-10-14T03:25:20.167Z,13.80
2022-10-14T03:27:48.042Z,13.80
2022-10-14T03:30:15.836Z,13.80
2022-10-14T03:32:43.617Z,13.80
2022-10-14T03:35:11.376Z,13.80
2022-10-14T03:37:39.157Z,13.80
2022-10-14T03:40:07.492Z,13.70
2022-10-14T03:42:36.615Z,13.70
2022-10-14T03:45:04.501Z,13.70
2022-10-14T03:47:32.282Z,13.70
2022-10-14T03:50:00.850Z,13.70
2022-10-14T03:52:28.593Z,13.70
2022-10-14T03:54:56.365Z,13.70
2022-10-14T03:57:24.120Z,13.70
2022-10-14T03:59:53.347Z,13.70
2022-10-14T04:02:21.224Z,13.70
2022-10-14T04:04:49.174Z,13.70
2022-10-14T04:07:17.029Z,13.70
2022-10-14T04:09:44.788Z,13.70
2022-10-14T04:12:12.764Z,13.70
2022-10-14T04:14:40.538Z,13.70
2022-10-14T04:17:09.706Z,13.70
2022-10-14T04:19:37.420Z,13.70
2022-10-14T04:22:05.291Z,13.70
2022-10-14T04:24:33.153Z,13.70
2022-10-14T04:27:00.896Z,13.80
2022-10-14T04:29:28.760Z,13.80
2022-10-14T04:31:56.654Z,13.80
2022-10-14T04:34:26.011Z,13.80
2022-10-14T04:36:53.980Z,13.80
2022-10-14T04:39:21.800Z,13.80
2022-10-14T04:41:49.610Z,13.80
2022-10-14T04:44:17.324Z,13.80
2022-10-14T04:46:45.151Z,13.80
2022-10-14T04:49:14.687Z,13.80
2022-10-14T04:51:43.928Z,13.90
2022-10-14T04:54:11.716Z,13.90
2022-10-14T04:56:39.660Z,13.90
2022-10-14T04:59:07.601Z,13.90
2022-10-14T05:01:35.480Z,13.90
2022-10-14T05:04:03.311Z,13.90
2022-10-14T05:06:31.034Z,13.90
2022-10-14T05:09:00.404Z,13.90
2022-10-14T05:11:28.131Z,13.90
2022-10-14T05:13:55.927Z,13.90
2022-10-14T05:16:23.700Z,13.90
2022-10-14T05:18:51.484Z,13.90
2022-10-14T05:21:19.288Z,13.90
2022-10-14T05:23:47.115Z,13.90
2022-10-14T05:26:16.216Z,13.90
2022-10-14T05:28:44.031Z,13.90
2022-10-14T05:31:11.842Z,13.90
2022-10-14T05:33:39.583Z,13.90
2022-10-14T05:36:07.718Z,13.90
2022-10-14T05:38:35.435Z,13.90
2022-10-14T05:41:03.205Z,13.90
2022-10-14T05:43:33.388Z,13.90
2022-10-14T05:46:01.153Z,14.00
2022-10-14T05:48:28.905Z,14.00
2022-10-14T05:51:01.292Z,14.00
2022-10-14T05:53:29.175Z,14.00
2022-10-14T05:56:01.751Z,14.00
2022-10-14T05:58:29.488Z,14.00
2022-10-14T06:01:01.551Z,14.00
2022-10-14T06:03:29.577Z,14.00
2022-10-14T06:05:57.721Z,14.00
2022-10-14T06:08:25.900Z,14.00
2022-10-14T06:10:53.965Z,14.00
2022-10-14T06:13:23.547Z,14.00
2022-10-14T06:15:51.268Z,14.00
2022-10-14T06:18:20.401Z,14.10
2022-10-14T06:20:52.378Z,14.10
2022-10-14T06:23:20.151Z,14.10
2022-10-14T06:25:47.881Z,14.10
2022-10-14T06:28:15.711Z,14.10
2022-10-14T06:30:43.464Z,14.10
2022-10-14T06:33:11.213Z,14.10
2022-10-14T06:35:40.363Z,14.10
2022-10-14T06:38:08.047Z,14.20
2022-10-14T06:40:36.726Z,14.20
2022-10-14T06:43:05.023Z,14.20
2022-10-14T06:45:32.919Z,14.20
2022-10-14T06:48:00.658Z,14.30
2022-10-14T06:50:28.406Z,14.30
2022-10-14T06:52:57.474Z,14.30
2022-10-14T06:55:25.309Z,14.40
2022-10-14T06:57:53.056Z,14.40
2022-10-14T07:00:20.863Z,14.40
2022-10-14T07:02:48.624Z,14.40
2022-10-14T07:05:16.589Z,14.40
2022-10-14T07:07:44.371Z,14.50
2022-10-14T07:10:13.543Z,14.50
2022-10-14T07:12:41.408Z,14.50
2022-10-14T07:15:11.594Z,14.50
2022-10-14T07:17:39.382Z,14.50
2022-10-14T07:20:07.771Z,14.50
2022-10-14T07:22:38.968Z,14.60
2022-10-14T07:25:07.604Z,14.60
2022-10-14T07:27:36.765Z,14.60
2022-10-14T07:30:07.789Z,14.60
2022-10-14T07:32:36.843Z,14.60
2022-10-14T07:35:04.793Z,14.70
2022-10-14T07:37:32.661Z,14.60
2022-10-14T07:40:00.517Z,14.70
2022-10-14T07:42:28.312Z,14.70
2022-10-14T07:44:58.107Z,14.70
2022-10-14T07:47:25.998Z,14.80
2022-10-14T07:49:53.935Z,14.70
2022-10-14T07:52:21.847Z,14.70
2022-10-14T07:54:49.668Z,14.70
2022-10-14T07:57:18.915Z,14.70
2022-10-14T07:59:47.983Z,14.70
2022-10-14T08:02:23.391Z,14.80
2022-10-14T08:07:48.648Z,14.80
2022-10-14T08:10:16.531Z,14.80
2022-10-14T08:12:44.286Z,14.90
2022-10-14T08:15:14.525Z,14.90
2022-10-14T08:17:45.205Z,14.90
2022-10-14T08:20:13.093Z,15.00
2022-10-14T08:22:43.646Z,15.10
2022-10-14T08:25:13.574Z,15.10
2022-10-14T08:27:41.428Z,15.20
2022-10-14T08:30:11.720Z,15.20
2022-10-14T08:32:39.579Z,15.40
2022-10-14T08:35:11.359Z,15.40
2022-10-14T08:37:39.163Z,15.50
2022-10-14T08:40:07.781Z,15.50
2022-10-14T08:42:44.744Z,15.50
2022-10-14T08:45:16.264Z,15.60
2022-10-14T08:47:45.580Z,15.50
2022-10-14T08:50:22.049Z,15.60
2022-10-14T08:52:51.660Z,15.70
2022-10-14T08:55:24.209Z,15.70
2022-10-14T08:57:55.054Z,15.70
2022-10-14T09:00:22.879Z,15.70
2022-10-14T09:02:54.926Z,15.80
2022-10-14T09:05:25.899Z,15.90
2022-10-14T09:07:55.423Z,16.00
2022-10-14T09:10:26.180Z,16.10
2022-10-14T09:12:55.676Z,16.10
2022-10-14T09:15:28.708Z,16.00
2022-10-14T09:18:01.057Z,16.00
2022-10-14T09:20:30.284Z,16.00
2022-10-14T09:23:01.958Z,16.00
2022-10-14T09:25:31.432Z,16.10
2022-10-14T09:27:59.215Z,16.20
2022-10-14T09:30:27.038Z,16.20
2022-10-14T09:32:55.348Z,16.30
2022-10-14T09:35:24.810Z,16.30
2022-10-14T09:37:56.232Z,16.30
2022-10-14T09:40:27.666Z,16.30
2022-10-14T09:42:58.283Z,16.30
2022-10-14T09:45:26.699Z,16.40
2022-10-14T09:47:56.594Z,16.20
2022-10-14T09:50:26.464Z,16.20
2022-10-14T09:52:56.208Z,16.20
2022-10-14T09:55:25.258Z,16.20
2022-10-14T09:57:59.424Z,16.20
2022-10-14T10:00:28.491Z,16.30
2022-10-14T10:02:59.391Z,16.30
2022-10-14T10:05:28.386Z,16.30
2022-10-14T10:08:11.447Z,16.40
2022-10-14T10:10:39.257Z,16.40
2022-10-14T10:13:22.064Z,16.50
2022-10-14T10:15:57.812Z,16.50
2022-10-14T10:18:25.528Z,16.60
2022-10-14T10:21:02.221Z,16.70
2022-10-14T10:23:31.312Z,16.90
2022-10-14T10:26:14.925Z,17.00
2022-10-14T10:28:48.033Z,17.10
2022-10-14T10:31:25.209Z,17.10
2022-10-14T10:34:00.138Z,17.10
2022-10-14T10:36:31.410Z,17.10
2022-10-14T10:39:02.767Z,17.10
2022-10-14T10:41:46.729Z,17.10
2022-10-14T10:44:29.848Z,17.10
2022-10-14T10:47:10.229Z,17.00
2022-10-14T10:49:44.475Z,17.00
2022-10-14T10:52:20.460Z,17.00
2022-10-14T10:54:54.906Z,16.90
2022-10-14T10:57:30.169Z,16.90
2022-10-14T11:00:00.425Z,16.80
2022-10-14T11:02:51.194Z,16.80
2022-10-14T11:05:19.597Z,16.70
2022-10-14T11:08:11.131Z,16.70
2022-10-14T11:11:02.172Z,16.60
2022-10-14T11:13:35.967Z,16.60
2022-10-14T11:16:06.699Z,16.50
2022-10-14T11:18:46.331Z,16.50
2022-10-14T11:21:20.222Z,16.50
2022-10-14T11:23:59.417Z,16.50
2022-10-14T11:26:42.220Z,16.50
2022-10-14T11:29:18.718Z,16.40
2022-10-14T11:31:51.600Z,16.40
2022-10-14T11:34:27.967Z,16.40
2022-10-14T11:37:05.267Z,16.40
2022-10-14T11:39:41.116Z,16.40
2022-10-14T11:42:16.941Z,16.40
2022-10-14T11:44:46.235Z,16.50
2022-10-14T11:47:16.934Z,16.50
2022-10-14T11:49:46.977Z,16.50
2022-10-14T11:52:19.826Z,16.50
2022-10-14T11:54:51.910Z,16.50
2022-10-14T11:57:26.033Z,16.50
2022-10-14T12:00:15.700Z,16.50
2022-10-14T12:02:45.645Z,16.60
2022-10-14T12:05:18.382Z,16.60
2022-10-14T12:07:49.127Z,16.70
2022-10-14T12:10:22.563Z,16.70
2022-10-14T12:12:52.351Z,16.70
2022-10-14T12:15:22.356Z,16.70
2022-10-14T12:17:51.875Z,16.80
2022-10-14T12:20:30.451Z,16.90
2022-10-14T12:22:58.451Z,17.10
2022-10-14T12:25:29.097Z,17.20
2022-10-14T12:27:58.459Z,17.20
2022-10-14T12:30:33.662Z,17.20
2022-10-14T12:33:03.345Z,17.30
2022-10-14T12:35:45.992Z,17.40
2022-10-14T12:38:13.901Z,17.30
2022-10-14T12:40:41.729Z,17.30
2022-10-14T12:43:27.233Z,17.30
2022-10-14T12:46:01.739Z,17.20
2022-10-14T12:48:33.864Z,17.20
2022-10-14T12:51:09.535Z,17.20
2022-10-14T12:53:38.005Z,17.20
2022-10-14T12:56:08.256Z,17.20
2022-10-14T12:58:37.495Z,17.20
2022-10-14T13:01:08.335Z,17.30
2022-10-14T13:03:40.600Z,17.40
2022-10-14T13:07:47.181Z,17.50
2022-10-14T13:10:48.318Z,17.40
2022-10-14T13:13:52.388Z,17.40
2022-10-14T13:17:06.216Z,17.40
2022-10-14T13:19:45.363Z,17.50
2022-10-14T13:22:49.471Z,17.50
2022-10-14T13:25:22.782Z,17.50
2022-10-14T13:28:04.826Z,17.60
2022-10-14T13:30:46.763Z,17.80
2022-10-14T13:33:22.058Z,17.80
2022-10-14T13:35:59.946Z,17.80
2022-10-14T13:38:32.612Z,17.80
2022-10-14T13:41:00.939Z,17.70
2022-10-14T13:43:39.867Z,17.70
2022-10-14T13:46:12.670Z,17.80
2022-10-14T13:48:47.225Z,17.70
2022-10-14T13:51:36.682Z,17.70
2022-10-14T13:54:19.381Z,17.60
2022-10-14T13:57:31.562Z,17.60
2022-10-14T14:00:38.193Z,17.70
2022-10-14T14:02:36.362Z,17.70
2022-10-14T14:05:06.730Z,17.70
2022-10-14T14:08:08.442Z,17.70
2022-10-14T14:10:28.166Z,17.60
2022-10-14T14:12:56.576Z,17.30
2022-10-14T14:15:26.541Z,17.20
2022-10-14T14:17:55.133Z,17.10
2022-10-14T14:20:25.712Z,17.10
2022-10-14T14:22:53.907Z,17.00
2022-10-14T14:25:33.878Z,16.90
2022-10-14T14:28:06.009Z,16.80
2022-10-14T14:30:36.079Z,16.90
2022-10-14T14:33:07.715Z,16.80
2022-10-14T14:35:36.851Z,16.70
2022-10-14T14:38:04.919Z,16.70
2022-10-14T14:40:32.878Z,16.70
2022-10-14T14:43:02.770Z,16.70
2022-10-14T14:45:36.934Z,16.70
2022-10-14T14:48:07.484Z,16.70
2022-10-14T14:50:43.361Z,16.70
2022-10-14T14:53:13.314Z,16.80
2022-10-14T14:55:48.261Z,16.70
2022-10-14T14:58:27.885Z,16.70
2022-10-14T15:00:57.652Z,16.70
2022-10-14T15:03:27.682Z,16.70
2022-10-14T15:05:58.838Z,16.70
2022-10-14T15:08:28.936Z,16.70
2022-10-14T15:10:58.741Z,16.80
2022-10-14T15:13:46.023Z,16.80
2022-10-14T15:16:32.443Z,16.70
2022-10-14T15:19:14.244Z,16.70
2022-10-14T15:21:42.262Z,16.70
2022-10-14T15:24:16.612Z,16.70
2022-10-14T15:26:45.256Z,16.60
2022-10-14T15:29:16.615Z,16.60
2022-10-14T15:31:48.252Z,16.60
2022-10-14T15:34:19.573Z,16.60
2022-10-14T15:36:54.058Z,16.60
2022-10-14T15:39:22.685Z,16.50
2022-10-14T15:41:53.207Z,16.50
2022-10-14T15:44:21.181Z,16.40
2022-10-14T15:47:08.882Z,16.40
2022-10-14T15:49:40.062Z,16.30
2022-10-14T15:52:08.445Z,16.40
2022-10-14T15:54:36.520Z,16.40
2022-10-14T15:57:08.249Z,16.40
2022-10-14T15:59:38.047Z,16.40
2022-10-14T16:02:17.686Z,16.40
2022-10-14T16:05:07.090Z,16.40
2022-10-14T16:07:33.641Z,16.30
2022-10-14T16:10:03.313Z,16.30
2022-10-14T16:12:31.228Z,16.30
2022-10-14T16:15:01.597Z,16.30
2022-10-14T16:17:33.288Z,16.20
2022-10-14T16:20:01.382Z,16.20
2022-10-14T16:22:29.352Z,16.20
2022-10-14T16:24:57.301Z,16.20
2022-10-14T16:27:25.354Z,16.10
2022-10-14T16:29:54.480Z,16.10
2022-10-14T16:32:22.404Z,16.10
2022-10-14T16:34:51.676Z,16.10
2022-10-14T16:37:19.924Z,16.10
2022-10-14T16:39:48.058Z,16.10
2022-10-14T16:44:49.613Z,16.10
2022-10-14T16:47:17.534Z,16.00
2022-10-14T16:49:46.967Z,16.00
2022-10-14T16:52:17.176Z,16.00
2022-10-14T16:54:45.114Z,16.00
2022-10-14T16:57:13.464Z,16.00
2022-10-14T16:59:41.327Z,16.00
2022-10-14T17:02:14.203Z,16.10
2022-10-14T17:04:42.377Z,16.00
2022-10-14T17:07:12.390Z,16.10
2022-10-14T17:09:41.733Z,16.10
2022-10-14T17:12:13.698Z,16.00
2022-10-14T17:14:42.138Z,15.90
2022-10-14T17:17:13.262Z,15.90
2022-10-14T17:19:41.325Z,15.90
2022-10-14T17:22:09.446Z,15.90
2022-10-14T17:24:37.353Z,15.90
2022-10-14T17:27:06.689Z,16.00
2022-10-14T17:29:34.750Z,16.00
2022-10-14T17:32:03.896Z,16.00
2022-10-14T17:34:32.764Z,16.00
2022-10-14T17:37:00.805Z,16.00
2022-10-14T17:39:29.865Z,16.10
2022-10-14T17:42:00.872Z,16.00
2022-10-14T17:44:33.248Z,16.00
2022-10-14T17:47:02.137Z,16.10
2022-10-14T17:49:31.211Z,16.00
2022-10-14T17:52:02.038Z,16.10
2022-10-14T17:54:30.816Z,16.10
2022-10-14T17:57:01.859Z,16.10
2022-10-14T17:59:31.103Z,16.00
2022-10-14T18:02:03.438Z,16.10
2022-10-14T18:04:32.597Z,16.00
2022-10-14T18:07:00.994Z,16.10
2022-10-14T18:09:29.031Z,16.10
2022-10-14T18:12:13.377Z,16.10
2022-10-14T18:14:43.626Z,16.10
2022-10-14T18:17:19.055Z,16.20
2022-10-14T18:19:52.228Z,16.20
2022-10-14T18:22:20.560Z,16.10
2022-10-14T18:24:48.641Z,16.10
2022-10-14T18:27:16.611Z,16.00
2022-10-14T18:29:45.950Z,16.00
2022-10-14T18:32:13.957Z,15.90
2022-10-14T18:34:42.081Z,15.80
2022-10-14T18:37:12.418Z,15.80
2022-10-14T18:39:40.452Z,15.80
2022-10-14T18:42:09.471Z,15.70
2022-10-14T18:44:40.464Z,15.60
2022-10-14T18:47:10.019Z,15.60
2022-10-14T18:49:40.043Z,15.50
2022-10-14T18:52:09.307Z,15.60
2022-10-14T18:54:40.121Z,15.60
2022-10-14T18:57:14.709Z,15.60
2022-10-14T18:59:42.918Z,15.60
2022-10-14T19:02:18.821Z,15.50
2022-10-14T19:04:47.523Z,15.60
2022-10-14T19:07:15.488Z,15.60
2022-10-14T19:09:46.525Z,15.50
2022-10-14T19:12:31.929Z,15.50
2022-10-14T19:15:02.530Z,15.50
2022-10-14T19:17:31.857Z,15.50
2022-10-14T19:20:01.023Z,15.50
2022-10-14T19:22:29.025Z,15.50
2022-10-14T19:24:56.964Z,15.50
2022-10-14T19:27:25.149Z,15.50
2022-10-14T19:29:53.350Z,15.50
2022-10-14T19:32:21.256Z,15.50
2022-10-14T19:34:52.189Z,15.50
2022-10-14T19:37:20.474Z,15.60
2022-10-14T19:39:48.721Z,15.50
2022-10-14T19:42:16.661Z,15.50
2022-10-14T19:44:44.597Z,15.60
2022-10-14T19:47:12.649Z,15.50
2022-10-14T19:49:40.647Z,15.50
2022-10-14T19:52:10.170Z,15.50
2022-10-14T19:54:38.150Z,15.40
2022-10-14T19:57:06.095Z,15.40
2022-10-14T19:59:34.129Z,15.50
2022-10-14T20:02:02.165Z,15.40
2022-10-14T20:04:30.156Z,15.40
2022-10-14T20:06:58.117Z,15.40
2022-10-14T20:09:27.473Z,15.30
2022-10-14T20:11:55.384Z,15.30
2022-10-14T20:14:23.939Z,15.40
2022-10-14T20:16:53.678Z,15.40
2022-10-14T20:19:23.868Z,15.40
2022-10-14T20:21:51.972Z,15.40
2022-10-14T20:24:21.740Z,15.40
2022-10-14T20:26:50.955Z,15.40
2022-10-14T20:29:19.365Z,15.40
2022-10-14T20:31:47.475Z,15.40
2022-10-14T20:34:15.475Z,15.40
2022-10-14T20:36:43.434Z,15.40
2022-10-14T20:39:11.419Z,15.40
2022-10-14T20:41:39.459Z,15.40
2022-10-14T20:44:08.805Z,15.40
2022-10-14T20:46:36.824Z,15.40
2022-10-14T20:49:05.127Z,15.40
2022-10-14T20:51:33.029Z,15.50
2022-10-14T20:54:04.232Z,15.50
2022-10-14T20:56:35.537Z,15.50
2022-10-14T20:59:05.251Z,15.50
2022-10-14T21:01:37.557Z,15.50
2022-10-14T21:04:07.915Z,15.50
2022-10-14T21:06:41.469Z,15.60
2022-10-14T21:09:10.631Z,15.60
2022-10-14T21:11:39.324Z,15.50
2022-10-14T21:14:07.432Z,15.50
2022-10-14T21:16:39.774Z,15.50
2022-10-14T21:19:08.955Z,15.50
2022-10-14T21:21:38.496Z,15.50
2022-10-14T21:24:07.122Z,15.50
2022-10-14T21:26:35.641Z,15.50
2022-10-14T21:29:08.195Z,15.50
2022-10-14T21:31:37.878Z,15.50
2022-10-14T21:34:06.768Z,15.50
2022-10-14T21:36:37.101Z,15.40
2022-10-14T21:39:08.604Z,15.40
2022-10-14T21:41:37.177Z,15.40
2022-10-14T21:44:09.762Z,15.40
2022-10-14T21:46:39.089Z,15.40
2022-10-14T21:49:07.195Z,15.40
2022-10-14T21:51:38.652Z,15.40
2022-10-14T21:54:11.107Z,15.40
2022-10-14T21:56:38.839Z,15.40
2022-10-14T21:59:07.092Z,15.40
2022-10-14T22:01:35.390Z,15.40
2022-10-14T22:04:06.724Z,15.40
2022-10-14T22:06:36.134Z,15.40
2022-10-14T22:09:06.524Z,15.40
2022-10-14T22:11:36.327Z,15.40
2022-10-14T22:14:06.704Z,15.40
2022-10-14T22:16:36.023Z,15.40
2022-10-14T22:19:07.572Z,15.40
2022-10-14T22:21:38.989Z,15.40
2022-10-14T22:26:41.567Z,15.30
2022-10-14T22:29:13.700Z,15.30
2022-10-14T22:31:42.158Z,15.40
2022-10-14T22:34:13.038Z,15.30
2022-10-14T22:36:44.715Z,15.40
2022-10-14T22:39:14.795Z,15.40
2022-10-14T22:41:43.084Z,15.40
2022-10-14T22:44:13.257Z,15.40
2022-10-14T22:46:41.714Z,15.40
2022-10-14T22:49:11.117Z,15.40
2022-10-14T22:51:41.222Z,15.40
2022-10-14T22:54:09.914Z,15.40
2022-10-14T22:56:38.358Z,15.40
2022-10-14T22:59:08.781Z,15.40
2022-10-14T23:01:37.464Z,15.40
2022-10-14T23:04:06.165Z,15.30
2022-10-14T23:06:37.222Z,15.40
2022-10-14T23:09:05.331Z,15.40
2022-10-14T23:11:35.985Z,15.40
2022-10-14T23:14:06.321Z,15.50
2022-10-14T23:16:35.716Z,15.50
2022-10-14T23:19:03.726Z,15.50
2022-10-14T23:21:33.414Z,15.50
2022-10-14T23:24:04.425Z,15.50
2022-10-14T23:26:34.430Z,15.50
2022-10-14T23:29:04.642Z,15.50
2022-10-14T23:31:34.677Z,15.50
2022-10-14T23:34:05.458Z,15.40
2022-10-14T23:36:33.834Z,15.50
2022-10-14T23:39:03.120Z,15.50
2022-10-14T23:41:31.165Z,15.50
2022-10-14T23:43:59.124Z,15.50
2022-10-14T23:46:27.072Z,15.60
2022-10-14T23:49:06.940Z,15.50
2022-10-14T23:51:36.397Z,15.60
2022-10-14T23:54:05.805Z,15.60
2022-10-14T23:56:33.725Z,15.60
2022-10-14T23:59:01.676Z,15.60
